Terminal Aerodrome Forecast
Issued by NWS Duluth, MN

Home | Current Version | Previous Version | Text Only | Print | Product List | Glossary On
Versions: 1 2 3 4 5 6 7 8 9 10 11 12 13 14 15 16 17 18 19
000
FTUS43 KDLH 012339
TAFINL
TAF
KINL 012339Z 0200/0224 25008KT P6SM SCT070 SCT100
     FM020200 23004KT P6SM SCT070 BKN100
     FM020600 VRB04KT P6SM VCSH BKN060 OVC100
      TEMPO 0207/0211 -TSRA SCT025 BKN035CB OVC060
     FM021200 33008KT P6SM VCSH SCT030 BKN040
     FM021500 33013G19KT P6SM SCT050=

USA.gov is the U.S. government's official web portal to all federal, state and local government web resources and services.